createdAt,value
2022-12-14T00:03:51.681Z,9.97
2022-12-14T00:08:56.475Z,9.20
2022-12-14T00:14:00.732Z,9.10
2022-12-14T00:19:05.681Z,9.60
2022-12-14T00:24:10.310Z,8.30
2022-12-14T00:29:13.182Z,9.67
2022-12-14T00:34:17.599Z,6.80
2022-12-14T00:39:20.928Z,9.47
2022-12-14T00:44:23.777Z,8.03
2022-12-14T00:49:28.030Z,10.93
2022-12-14T00:54:30.728Z,8.37
2022-12-14T00:59:33.462Z,8.47
2022-12-14T01:04:37.674Z,8.63
2022-12-14T01:09:40.353Z,9.90
2022-12-14T01:14:43.055Z,10.80
2022-12-14T01:19:48.993Z,8.17
2022-12-14T01:24:52.324Z,10.00
2022-12-14T01:29:55.026Z,8.07
2022-12-14T01:34:59.042Z,12.37
2022-12-14T01:40:01.795Z,9.60
2022-12-14T01:45:05.991Z,9.17
2022-12-14T01:50:18.963Z,10.07
2022-12-14T01:55:23.938Z,9.93
2022-12-14T02:00:26.785Z,10.17
2022-12-14T02:05:31.488Z,7.90
2022-12-14T02:10:34.602Z,10.83
2022-12-14T02:15:39.177Z,9.83
2022-12-14T02:20:53.953Z,11.13
2022-12-14T02:26:28.370Z,13.33
2022-12-14T02:31:36.077Z,11.47
2022-12-14T02:36:43.950Z,13.70
2022-12-14T02:41:52.354Z,10.63
2022-12-14T02:46:59.349Z,6.17
2022-12-14T02:52:07.588Z,7.63
2022-12-14T02:57:14.831Z,10.53
2022-12-14T03:02:19.597Z,9.60
2022-12-14T03:07:34.626Z,7.27
2022-12-14T03:12:40.736Z,9.17
2022-12-14T03:17:49.063Z,6.33
2022-12-14T03:22:54.502Z,7.13
2022-12-14T03:28:01.829Z,7.00
2022-12-14T03:33:07.677Z,6.90
2022-12-14T03:38:15.409Z,9.93
2022-12-14T03:43:21.899Z,8.47
2022-12-14T03:48:31.313Z,5.90
2022-12-14T03:53:39.396Z,7.70
2022-12-14T03:58:55.361Z,6.23
2022-12-14T04:04:05.277Z,6.60
2022-12-14T04:09:18.873Z,7.33
2022-12-14T04:14:42.419Z,6.73
2022-12-14T04:19:49.916Z,9.30
2022-12-14T04:25:14.449Z,7.80
2022-12-14T04:30:17.548Z,7.73
2022-12-14T04:35:23.951Z,6.23
2022-12-14T04:40:30.348Z,7.00
2022-12-14T04:45:36.961Z,8.17
2022-12-14T04:50:45.006Z,10.10
2022-12-14T04:55:52.297Z,10.20
2022-12-14T05:01:09.755Z,7.70
2022-12-14T05:06:19.704Z,8.93
2022-12-14T05:16:50.559Z,8.37
2022-12-14T05:21:56.022Z,8.20
2022-12-14T05:26:58.988Z,8.17
2022-12-14T05:32:02.013Z,8.17
2022-12-14T05:37:06.078Z,7.70
2022-12-14T05:42:08.783Z,10.63
2022-12-14T05:47:11.706Z,10.30
2022-12-14T05:52:15.896Z,8.73
2022-12-14T05:57:18.585Z,7.23
2022-12-14T06:02:21.411Z,7.73
2022-12-14T06:07:27.932Z,11.03
2022-12-14T06:12:31.552Z,7.37
2022-12-14T06:17:34.263Z,6.63
2022-12-14T06:22:42.758Z,9.87
2022-12-14T06:27:48.592Z,5.97
2022-12-14T06:32:51.313Z,6.37
2022-12-14T06:37:55.796Z,7.70
2022-12-14T06:42:58.572Z,9.03
2022-12-14T06:48:02.056Z,8.33
2022-12-14T06:53:06.251Z,11.27
2022-12-14T06:58:12.455Z,7.97
2022-12-14T07:03:15.271Z,7.63
2022-12-14T07:08:20.449Z,8.67
2022-12-14T07:13:23.642Z,6.40
2022-12-14T07:18:27.109Z,7.57
2022-12-14T07:23:32.841Z,8.87
2022-12-14T07:28:36.976Z,8.50
2022-12-14T07:33:39.711Z,9.67
2022-12-14T07:38:45.406Z,8.03
2022-12-14T07:43:49.738Z,10.43
2022-12-14T07:48:54.743Z,8.70
2022-12-14T07:53:59.593Z,9.73
2022-12-14T07:59:04.116Z,7.27
2022-12-14T08:04:08.737Z,10.33
2022-12-14T08:09:13.398Z,10.50
2022-12-14T08:14:18.158Z,6.47
2022-12-14T08:19:21.117Z,7.33
2022-12-14T08:24:25.510Z,10.43
2022-12-14T08:29:28.344Z,10.53
2022-12-14T08:34:31.270Z,9.40
2022-12-14T08:39:35.456Z,14.63
2022-12-14T08:44:38.243Z,16.33
2022-12-14T08:49:41.277Z,15.10
2022-12-14T08:54:45.692Z,10.00
2022-12-14T09:00:03.965Z,12.20
2022-12-14T09:05:07.154Z,8.80
2022-12-14T09:10:11.871Z,9.50
2022-12-14T09:15:14.702Z,9.83
2022-12-14T09:20:19.355Z,11.73
2022-12-14T09:25:23.571Z,11.57
2022-12-14T09:30:27.038Z,13.60
2022-12-14T09:35:30.063Z,12.23
2022-12-14T09:40:34.239Z,13.60
2022-12-14T09:45:46.216Z,12.07
2022-12-14T09:50:50.590Z,9.37
2022-12-14T09:55:56.734Z,14.50
2022-12-14T10:01:05.992Z,13.93
2022-12-14T10:06:29.050Z,13.50
2022-12-14T10:11:38.641Z,13.67
2022-12-14T10:16:51.471Z,11.57
2022-12-14T10:21:58.777Z,11.60
2022-12-14T10:27:03.193Z,11.07
2022-12-14T10:32:19.122Z,14.60
2022-12-14T10:37:26.556Z,10.30
2022-12-14T10:42:33.913Z,9.83
2022-12-14T10:47:40.245Z,12.40
2022-12-14T10:52:44.049Z,12.03
2022-12-14T10:57:48.311Z,13.43
2022-12-14T11:02:55.302Z,11.47
2022-12-14T11:07:58.180Z,12.83
2022-12-14T11:13:06.804Z,10.47
2022-12-14T11:18:25.124Z,12.70
2022-12-14T11:23:30.199Z,12.27
2022-12-14T11:28:37.778Z,12.30
2022-12-14T11:33:45.636Z,9.43
2022-12-14T11:38:57.331Z,10.90
2022-12-14T11:44:22.889Z,12.83
2022-12-14T11:49:28.239Z,12.20
2022-12-14T11:54:31.909Z,14.77
2022-12-14T11:59:40.897Z,12.90
2022-12-14T12:04:46.380Z,12.10
2022-12-14T12:09:49.127Z,14.23
2022-12-14T12:14:57.099Z,12.10
2022-12-14T12:20:00.180Z,12.07
2022-12-14T12:30:33.238Z,12.50
2022-12-14T12:35:38.932Z,12.13
2022-12-14T12:40:53.417Z,14.33
2022-12-14T12:46:00.241Z,11.90
2022-12-14T12:51:05.404Z,14.90
2022-12-14T12:56:11.856Z,13.33
2022-12-14T13:01:25.539Z,14.77
2022-12-14T13:06:31.333Z,15.30
2022-12-14T13:11:38.813Z,14.47
2022-12-14T13:16:43.453Z,12.20
2022-12-14T13:21:49.721Z,14.13
2022-12-14T13:27:29.467Z,14.90
2022-12-14T13:32:47.118Z,16.93
2022-12-14T13:38:01.911Z,15.77
2022-12-14T13:43:16.956Z,15.80
2022-12-14T13:48:24.516Z,16.97
2022-12-14T13:53:29.907Z,15.53
2022-12-14T13:58:35.082Z,16.00
2022-12-14T14:03:56.210Z,16.90
2022-12-14T14:09:03.077Z,16.50
2022-12-14T14:14:15.692Z,16.67
2022-12-14T14:19:23.728Z,17.60
2022-12-14T14:24:27.445Z,18.80
2022-12-14T14:29:31.029Z,17.30
2022-12-14T14:34:39.910Z,17.03
2022-12-14T14:40:07.244Z,15.47
2022-12-14T14:45:07.874Z,16.13
2022-12-14T14:50:22.373Z,16.77
2022-12-14T14:56:01.124Z,19.63
2022-12-14T15:01:10.744Z,19.20
2022-12-14T15:06:20.020Z,18.30
2022-12-14T15:11:24.234Z,18.37
2022-12-14T15:16:32.605Z,15.23
2022-12-14T15:21:39.217Z,16.03
2022-12-14T15:26:42.589Z,16.37
2022-12-14T15:31:46.994Z,19.73
2022-12-14T15:36:51.864Z,18.23
2022-12-14T15:42:03.392Z,21.03
2022-12-14T15:47:07.775Z,18.83
2022-12-14T15:52:12.279Z,18.03
2022-12-14T15:57:18.312Z,27.20
2022-12-14T16:02:25.513Z,21.77
2022-12-14T16:07:34.615Z,20.37
2022-12-14T16:12:44.384Z,19.40
2022-12-14T16:17:48.152Z,17.03
2022-12-14T16:23:07.772Z,17.53
2022-12-14T16:28:21.929Z,17.57
2022-12-14T16:33:25.725Z,15.00
2022-12-14T16:38:30.285Z,16.93
2022-12-14T16:43:36.040Z,15.13
2022-12-14T16:48:41.655Z,17.90
2022-12-14T16:53:52.443Z,17.07
2022-12-14T16:58:57.637Z,19.97
2022-12-14T17:04:03.547Z,16.80
2022-12-14T17:09:08.168Z,15.83
2022-12-14T17:14:11.083Z,18.27
2022-12-14T17:19:21.242Z,15.73
2022-12-14T17:24:25.419Z,17.93
2022-12-14T17:29:29.993Z,18.10
2022-12-14T17:34:32.763Z,18.27
2022-12-14T17:39:38.289Z,17.50
2022-12-14T17:44:42.009Z,17.53
2022-12-14T17:49:44.794Z,19.67
2022-12-14T17:54:48.962Z,18.67
2022-12-14T18:00:13.112Z,16.87
2022-12-14T18:05:19.376Z,18.93
2022-12-14T18:10:24.045Z,18.73
2022-12-14T18:15:28.645Z,22.70
2022-12-14T18:20:31.672Z,19.10
2022-12-14T18:25:38.013Z,22.70
2022-12-14T18:30:47.677Z,22.10
2022-12-14T18:35:53.493Z,20.43
2022-12-14T18:41:00.174Z,18.67
2022-12-14T18:46:03.041Z,18.93
2022-12-14T18:51:06.594Z,18.17
2022-12-14T18:56:16.200Z,15.63
2022-12-14T19:01:20.741Z,20.00
2022-12-14T19:11:49.280Z,16.70
2022-12-14T19:16:51.976Z,19.30
2022-12-14T19:21:54.886Z,16.27
2022-12-14T19:26:59.224Z,16.30
2022-12-14T19:32:05.619Z,16.70
2022-12-14T19:37:08.907Z,16.60
2022-12-14T19:42:13.941Z,20.20
2022-12-14T19:47:16.708Z,17.47
2022-12-14T19:52:19.666Z,13.83
2022-12-14T19:57:23.899Z,17.13
2022-12-14T20:02:26.805Z,14.50
2022-12-14T20:07:29.775Z,14.57
2022-12-14T20:12:34.675Z,13.67
2022-12-14T20:17:37.567Z,12.87
2022-12-14T20:22:40.614Z,16.73
2022-12-14T20:27:44.950Z,16.10
2022-12-14T20:32:49.116Z,12.73
2022-12-14T20:37:53.684Z,14.33
2022-12-14T20:42:57.826Z,14.47
2022-12-14T20:48:00.616Z,15.30
2022-12-14T20:53:03.456Z,13.67
2022-12-14T20:58:07.563Z,12.20
2022-12-14T21:03:10.466Z,18.63
2022-12-14T21:08:15.634Z,12.87
2022-12-14T21:13:19.953Z,13.30
2022-12-14T21:18:24.574Z,12.97
2022-12-14T21:23:27.782Z,13.83
2022-12-14T21:28:32.469Z,13.07
2022-12-14T21:33:36.371Z,14.77
2022-12-14T21:38:39.300Z,13.60
2022-12-14T21:43:43.421Z,13.30
2022-12-14T21:48:46.599Z,16.00
2022-12-14T21:54:00.979Z,12.37
2022-12-14T21:59:05.083Z,13.97
2022-12-14T22:04:07.875Z,15.60
2022-12-14T22:09:10.597Z,13.10
2022-12-14T22:14:15.242Z,12.13
2022-12-14T22:19:21.111Z,14.23
2022-12-14T22:24:24.803Z,16.70
2022-12-14T22:29:28.880Z,13.47
2022-12-14T22:34:31.631Z,15.37
2022-12-14T22:39:34.339Z,11.57
2022-12-14T22:44:38.865Z,10.73
2022-12-14T22:49:41.617Z,14.27
2022-12-14T22:54:44.663Z,17.97
2022-12-14T22:59:57.678Z,12.63
2022-12-14T23:05:00.456Z,12.83
2022-12-14T23:10:20.858Z,15.30
2022-12-14T23:15:42.351Z,11.73
2022-12-14T23:21:02.599Z,16.50
2022-12-14T23:26:23.429Z,11.07
2022-12-14T23:31:44.893Z,12.77
2022-12-14T23:37:04.927Z,12.13
2022-12-14T23:42:25.372Z,13.57
2022-12-14T23:47:46.795Z,11.47
2022-12-14T23:53:09.945Z,13.37
2022-12-14T23:58:30.056Z,8.97
